Time;durP1;ratioP1;P1;durP2;ratioP2;P2;SDS_P1;SDS_P2;PMS_P1;PMS_P2;Temp;Humidity;BMP_temperature;BMP_pressure;BME280_temperature;BME280_humidity;BME280_pressure;Samples;Min_cycle;Max_cycle;Signal;HPM_P1;HPM_P2
2024/02/13 00:00:39;;;;;;;5.07;3.37;;;4.80;1.00;;;;;;5100314;28;20187;-42
2024/02/13 00:03:09;;;;;;;9.10;2.90;;;4.80;1.00;;;;;;5100661;28;20184;-42
2024/02/13 00:05:35;;;;;;;6.80;2.57;;;4.80;1.00;;;;;;5115875;28;20527;-41
2024/02/13 00:08:01;;;;;;;3.73;2.90;;;4.80;1.00;;;;;;5117255;28;20463;-43
2024/02/13 00:10:30;;;;;;;7.97;3.23;;;4.80;1.00;;;;;;5098719;28;20495;-43
2024/02/13 00:12:55;;;;;;;7.27;3.23;;;4.70;1.00;;;;;;5116110;28;20426;-42
2024/02/13 00:15:21;;;;;;;5.40;3.00;;;4.70;1.00;;;;;;5115729;28;20727;-43
2024/02/13 00:17:51;;;;;;;10.13;4.00;;;4.70;1.00;;;;;;5115793;28;20493;-43
2024/02/13 00:20:17;;;;;;;4.87;3.30;;;4.70;1.00;;;;;;5082220;28;20175;-43
2024/02/13 00:22:45;;;;;;;3.97;2.97;;;4.70;1.00;;;;;;5116728;28;20530;-41
2024/02/13 00:25:12;;;;;;;4.70;3.20;;;4.70;1.00;;;;;;5080581;28;20434;-44
2024/02/13 00:27:38;;;;;;;5.40;3.20;;;4.70;1.00;;;;;;5098992;28;20747;-41
2024/02/13 00:30:09;;;;;;;5.97;3.63;;;4.80;1.00;;;;;;5115261;28;20887;-42
2024/02/13 00:32:38;;;;;;;5.77;3.40;;;4.80;1.00;;;;;;5080013;28;20410;-42
2024/02/13 00:35:08;;;;;;;8.90;4.57;;;4.80;1.00;;;;;;5116201;28;20456;-43
2024/02/13 00:37:36;;;;;;;6.13;3.30;;;4.90;1.00;;;;;;5116545;28;20421;-43
2024/02/13 00:40:05;;;;;;;10.43;3.20;;;4.90;1.00;;;;;;5115962;28;20457;-45
2024/02/13 00:42:32;;;;;;;5.33;3.10;;;4.90;1.00;;;;;;5117442;28;20437;-41
2024/02/13 00:45:00;;;;;;;6.07;3.73;;;4.90;1.00;;;;;;5116477;28;20826;-43
2024/02/13 00:47:28;;;;;;;4.97;3.03;;;4.90;1.00;;;;;;5116914;28;20850;-45
2024/02/13 00:49:55;;;;;;;5.63;2.83;;;4.90;1.00;;;;;;5116857;28;20460;-42
2024/02/13 00:52:21;;;;;;;4.57;2.90;;;5.00;1.00;;;;;;5099331;28;20661;-43
2024/02/13 00:54:46;;;;;;;5.03;2.90;;;5.00;1.00;;;;;;5081612;28;20532;-43
2024/02/13 00:57:12;;;;;;;6.10;2.83;;;5.00;1.00;;;;;;5082191;28;20512;-42
2024/02/13 00:59:40;;;;;;;3.77;2.93;;;5.10;1.00;;;;;;5116734;28;20219;-45
2024/02/13 01:02:05;;;;;;;4.23;2.93;;;5.10;1.00;;;;;;5097652;28;20586;-44
2024/02/13 01:04:31;;;;;;;5.83;2.93;;;5.10;1.00;;;;;;5079276;28;20430;-45
2024/02/13 01:06:57;;;;;;;4.33;2.90;;;5.20;1.00;;;;;;5114290;28;20506;-42
2024/02/13 01:09:22;;;;;;;5.00;2.73;;;5.20;1.00;;;;;;5097166;28;20202;-42
2024/02/13 01:11:48;;;;;;;7.33;3.10;;;5.20;1.00;;;;;;5097268;28;20243;-44
2024/02/13 01:14:13;;;;;;;6.17;3.00;;;5.20;1.00;;;;;;5115576;28;20255;-44
2024/02/13 01:16:40;;;;;;;6.83;3.03;;;5.20;1.00;;;;;;5097625;28;20435;-41
2024/02/13 01:19:06;;;;;;;7.00;2.50;;;5.30;1.00;;;;;;5115607;28;20179;-41
2024/02/13 01:21:32;;;;;;;5.80;3.47;;;5.30;1.00;;;;;;5115783;28;20425;-44
2024/02/13 01:23:58;;;;;;;6.83;4.07;;;4.40;1.00;;;;;;5099738;28;20868;-41
2024/02/13 01:26:23;;;;;;;10.70;3.43;;;5.30;99.90;;;;;;5099824;28;20168;-45
2024/02/13 01:28:49;;;;;;;8.57;3.27;;;5.30;99.90;;;;;;5117144;28;20421;-44
2024/02/13 01:31:15;;;;;;;5.43;2.70;;;5.30;99.90;;;;;;5117292;28;20207;-44
2024/02/13 01:33:44;;;;;;;3.93;2.40;;;5.20;99.90;;;;;;5117363;28;20183;-44
2024/02/13 01:36:10;;;;;;;7.33;3.57;;;5.20;99.90;;;;;;5117104;28;20429;-42
2024/02/13 01:38:37;;;;;;;5.37;2.77;;;5.20;99.90;;;;;;5099438;28;20672;-44
2024/02/13 01:41:03;;;;;;;4.33;3.07;;;5.20;99.90;;;;;;5115915;28;20715;-42
2024/02/13 01:43:31;;;;;;;4.37;2.80;;;5.20;99.90;;;;;;5117961;28;20445;-42
2024/02/13 01:45:57;;;;;;;5.57;3.33;;;5.20;99.90;;;;;;5099629;28;20785;-42
2024/02/13 01:48:25;;;;;;;6.03;2.87;;;5.20;99.90;;;;;;5099194;28;20787;-42
2024/02/13 01:50:51;;;;;;;6.30;2.40;;;5.20;99.90;;;;;;5117584;28;20461;-44
2024/02/13 01:53:20;;;;;;;6.40;3.10;;;5.30;99.90;;;;;;5082277;28;20507;-43
2024/02/13 01:55:47;;;;;;;5.97;2.70;;;5.30;99.90;;;;;;5081537;28;20425;-42
2024/02/13 01:58:15;;;;;;;5.73;2.60;;;5.30;99.90;;;;;;5096333;28;20906;-43
2024/02/13 02:00:42;;;;;;;6.93;2.70;;;5.40;99.90;;;;;;5078805;28;20449;-43
2024/02/13 02:03:10;;;;;;;3.47;2.20;;;5.40;99.90;;;;;;5113761;28;20417;-43
2024/02/13 02:05:36;;;;;;;9.37;2.73;;;5.40;99.90;;;;;;5097052;28;20869;-42
2024/02/13 02:08:02;;;;;;;4.47;2.13;;;5.30;99.90;;;;;;5080013;28;20467;-42
2024/02/13 02:10:27;;;;;;;8.10;2.63;;;5.30;99.90;;;;;;5115595;28;20211;-45
2024/02/13 02:12:53;;;;;;;6.00;2.53;;;5.30;99.90;;;;;;5098578;28;20248;-41
2024/02/13 02:15:19;;;;;;;7.30;2.73;;;5.30;99.90;;;;;;5099451;28;20184;-41
2024/02/13 02:17:51;;;;;;;7.73;2.43;;;5.30;99.90;;;;;;5099773;28;20257;-43
2024/02/13 02:20:19;;;;;;;3.93;2.73;;;5.30;99.90;;;;;;5117220;28;20449;-42
2024/02/13 02:22:47;;;;;;;3.23;2.27;;;5.30;99.90;;;;;;5116504;28;20441;-43
2024/02/13 02:25:13;;;;;;;7.70;2.50;;;5.20;99.90;;;;;;5098068;28;20425;-41
2024/02/13 02:27:39;;;;;;;3.80;2.00;;;5.10;99.90;;;;;;5115215;28;20482;-46
2024/02/13 02:30:07;;;;;;;5.00;2.57;;;5.10;99.90;;;;;;5115632;28;20571;-43
2024/02/13 02:32:33;;;;;;;7.80;2.57;;;5.10;1.00;;;;;;5116713;28;20686;-43
2024/02/13 02:34:59;;;;;;;13.10;2.80;;;5.00;1.00;;;;;;5116362;28;20413;-43
2024/02/13 02:37:27;;;;;;;6.10;3.00;;;5.10;1.00;;;;;;5117163;28;20425;-43
2024/02/13 02:39:53;;;;;;;5.13;3.63;;;5.00;1.00;;;;;;5117236;28;20429;-45
2024/02/13 02:42:18;;;;;;;8.30;3.30;;;5.10;1.00;;;;;;5116341;28;20822;-43
2024/02/13 02:44:44;;;;;;;6.03;2.30;;;5.10;1.00;;;;;;5098343;28;20183;-46
2024/02/13 02:47:11;;;;;;;5.60;2.20;;;5.10;1.00;;;;;;5116741;28;20178;-45
2024/02/13 02:49:37;;;;;;;7.43;2.67;;;5.10;1.00;;;;;;5098432;28;20172;-41
2024/02/13 02:52:07;;;;;;;7.17;2.47;;;5.10;1.00;;;;;;5116402;28;20468;-43
2024/02/13 02:54:36;;;;;;;3.70;2.07;;;5.10;1.00;;;;;;5119826;28;20711;-42
2024/02/13 02:57:04;;;;;;;4.50;2.47;;;5.10;1.00;;;;;;5119568;28;20425;-42
2024/02/13 02:59:30;;;;;;;3.87;2.40;;;5.10;1.00;;;;;;5102443;28;20510;-44
2024/02/13 03:01:56;;;;;;;7.90;2.50;;;5.10;1.00;;;;;;5119757;28;20447;-41
2024/02/13 03:04:21;;;;;;;6.83;2.90;;;5.00;1.00;;;;;;5120063;28;20429;-42
2024/02/13 03:06:47;;;;;;;4.70;2.10;;;5.00;1.00;;;;;;5119472;28;20449;-43
2024/02/13 03:09:12;;;;;;;4.57;2.60;;;5.00;1.00;;;;;;5120109;28;20260;-45
2024/02/13 03:11:38;;;;;;;6.03;2.43;;;4.90;1.00;;;;;;5119717;28;20214;-41
2024/02/13 03:14:04;;;;;;;3.80;2.13;;;4.90;1.00;;;;;;5101562;28;20226;-42
2024/02/13 03:16:34;;;;;;;2.60;2.20;;;4.90;1.00;;;;;;5119955;28;20470;-41
2024/02/13 03:19:01;;;;;;;4.37;2.40;;;4.90;1.00;;;;;;5119650;28;20592;-41
2024/02/13 03:21:28;;;;;;;3.73;1.90;;;4.90;1.00;;;;;;5119956;28;20421;-43
2024/02/13 03:27:15;;;;;;;3.70;2.60;;;4.90;1.00;;;;;;5117267;28;20538;-41
2024/02/13 03:29:41;;;;;;;5.93;2.43;;;4.90;1.00;;;;;;5119540;28;20426;-42
2024/02/13 03:32:06;;;;;;;3.30;2.20;;;4.90;1.00;;;;;;5118818;28;20244;-42
2024/02/13 03:34:32;;;;;;;5.63;1.80;;;4.90;1.00;;;;;;5119926;28;20520;-44
2024/02/13 03:36:58;;;;;;;4.37;2.20;;;4.90;1.00;;;;;;5119323;28;20187;-41
2024/02/13 03:39:24;;;;;;;6.10;2.17;;;4.90;1.00;;;;;;5119523;28;20176;-41
2024/02/13 03:41:50;;;;;;;5.13;2.60;;;4.80;1.00;;;;;;5119453;28;20439;-42
2024/02/13 03:44:15;;;;;;;4.70;2.67;;;4.90;1.00;;;;;;5118950;28;20184;-41
2024/02/13 03:46:42;;;;;;;3.60;2.60;;;4.80;1.00;;;;;;5101428;28;20410;-41
2024/02/13 03:49:10;;;;;;;11.63;3.00;;;4.80;1.00;;;;;;5119581;28;20504;-42
2024/02/13 03:51:39;;;;;;;5.07;2.00;;;4.80;1.00;;;;;;5100900;28;20481;-44
2024/02/13 03:54:07;;;;;;;4.80;2.57;;;4.80;1.00;;;;;;5117910;28;20649;-43
2024/02/13 03:56:33;;;;;;;5.00;2.10;;;4.70;1.00;;;;;;5118489;28;20480;-45
2024/02/13 03:58:58;;;;;;;4.23;2.33;;;4.70;1.00;;;;;;5118920;28;20494;-43
2024/02/13 04:01:24;;;;;;;4.97;2.27;;;4.70;1.00;;;;;;5118803;28;20734;-42
2024/02/13 04:03:49;;;;;;;3.77;2.40;;;4.70;1.00;;;;;;5118050;28;20502;-42
2024/02/13 04:06:15;;;;;;;3.87;2.87;;;4.60;1.00;;;;;;5119195;28;20179;-45
2024/02/13 04:08:45;;;;;;;8.60;2.53;;;4.60;1.00;;;;;;5118635;28;20345;-42
2024/02/13 04:11:16;;;;;;;8.70;3.27;;;4.60;1.00;;;;;;5119125;28;20203;-41
2024/02/13 04:13:42;;;;;;;6.70;2.70;;;4.60;1.00;;;;;;5118837;28;20421;-43
2024/02/13 04:16:08;;;;;;;4.00;2.20;;;4.60;1.00;;;;;;5118894;28;20409;-41
2024/02/13 04:18:34;;;;;;;8.63;3.30;;;4.60;1.00;;;;;;5117739;28;20440;-43
2024/02/13 04:21:00;;;;;;;7.70;2.23;;;4.50;1.00;;;;;;5118338;28;20437;-42
2024/02/13 04:23:27;;;;;;;5.47;2.53;;;4.50;1.00;;;;;;5117757;28;20426;-42
2024/02/13 04:25:53;;;;;;;4.67;2.70;;;4.50;1.00;;;;;;5099521;28;20424;-42
2024/02/13 04:28:21;;;;;;;7.87;2.90;;;4.50;1.00;;;;;;5115467;28;20447;-44
2024/02/13 04:30:47;;;;;;;5.77;2.63;;;4.50;1.00;;;;;;5115838;28;20464;-41
2024/02/13 04:33:13;;;;;;;9.80;3.20;;;4.50;1.00;;;;;;5115161;28;20563;-41
2024/02/13 04:35:39;;;;;;;7.50;3.30;;;4.40;1.00;;;;;;5097359;28;20736;-41
2024/02/13 04:38:05;;;;;;;4.43;2.70;;;4.40;1.00;;;;;;5116092;28;20429;-42
2024/02/13 04:40:34;;;;;;;6.80;3.13;;;4.40;1.00;;;;;;5115446;28;20436;-42
2024/02/13 04:43:02;;;;;;;4.63;2.93;;;4.40;1.00;;;;;;5117301;28;20217;-42
2024/02/13 04:45:28;;;;;;;4.37;3.63;;;4.40;1.00;;;;;;5117597;28;20530;-42
2024/02/13 04:47:54;;;;;;;8.53;4.80;;;4.40;1.00;;;;;;5116751;28;20795;-40
2024/02/13 04:50:20;;;;;;;11.00;5.30;;;4.30;1.00;;;;;;5099524;28;20216;-40
2024/02/13 04:52:46;;;;;;;9.17;5.23;;;4.30;1.00;;;;;;5117204;28;20677;-42
2024/02/13 04:55:11;;;;;;;5.80;4.40;;;4.30;1.00;;;;;;5117334;28;20394;-41
2024/02/13 04:57:38;;;;;;;5.40;4.43;;;4.20;1.00;;;;;;5116833;28;20171;-40
2024/02/13 05:00:16;;;;;;;5.37;4.00;;;4.20;1.00;;;;;;5116928;28;20203;-41
2024/02/13 05:02:46;;;;;;;6.73;4.57;;;4.20;1.00;;;;;;5117187;28;20500;-42
2024/02/13 05:07:57;;;;;;;6.90;5.07;;;4.20;1.00;;;;;;5115149;28;20455;-40
2024/02/13 05:10:22;;;;;;;5.53;3.60;;;4.10;1.00;;;;;;5116497;28;20457;-41
2024/02/13 05:12:48;;;;;;;8.50;3.77;;;4.10;1.00;;;;;;5115936;28;20596;-42
2024/02/13 05:15:14;;;;;;;5.97;3.30;;;4.10;1.00;;;;;;5115147;28;20176;-41
2024/02/13 05:17:39;;;;;;;5.63;3.30;;;4.00;1.00;;;;;;5115549;28;20191;-41
2024/02/13 05:20:11;;;;;;;4.70;3.30;;;4.00;1.00;;;;;;5115196;28;20445;-42
2024/02/13 05:22:37;;;;;;;6.20;3.50;;;4.00;1.00;;;;;;5097858;28;20410;-42
2024/02/13 05:25:03;;;;;;;6.17;3.90;;;3.90;1.00;;;;;;5114834;28;20500;-42
2024/02/13 05:27:29;;;;;;;6.50;3.27;;;3.90;1.00;;;;;;5115454;28;20818;-40
2024/02/13 05:29:55;;;;;;;4.73;3.20;;;3.90;1.00;;;;;;5115020;28;20500;-43
2024/02/13 05:32:20;;;;;;;5.20;2.97;;;3.90;1.00;;;;;;5114173;28;20635;-42
2024/02/13 05:34:46;;;;;;;4.73;3.03;;;3.90;1.00;;;;;;5115136;28;20410;-42
2024/02/13 05:37:12;;;;;;;3.77;3.10;;;3.90;1.00;;;;;;5115619;28;20182;-41
2024/02/13 05:39:37;;;;;;;5.53;2.90;;;3.90;1.00;;;;;;5099007;28;20180;-41
2024/02/13 05:42:03;;;;;;;8.20;3.50;;;3.90;1.00;;;;;;5115956;28;20274;-41
2024/02/13 05:44:29;;;;;;;8.00;3.50;;;3.90;1.00;;;;;;5116638;28;20507;-41
2024/02/13 05:46:56;;;;;;;6.23;2.80;;;3.90;1.00;;;;;;5116009;28;20413;-42
2024/02/13 05:49:22;;;;;;;4.73;3.07;;;3.90;1.00;;;;;;5116832;28;20167;-41
2024/02/13 05:51:48;;;;;;;10.70;3.33;;;4.00;1.00;;;;;;5098948;28;20487;-40
2024/02/13 05:54:14;;;;;;;5.80;3.37;;;4.00;1.00;;;;;;5116545;28;20428;-41
2024/02/13 05:56:41;;;;;;;5.80;3.67;;;4.00;1.00;;;;;;5116820;28;20426;-40
2024/02/13 05:59:07;;;;;;;5.03;3.70;;;4.10;1.00;;;;;;5115642;28;20417;-41
2024/02/13 06:01:33;;;;;;;5.00;3.67;;;4.10;1.00;;;;;;5112714;28;20688;-44
2024/02/13 06:04:05;;;;;;;6.40;3.27;;;4.10;1.00;;;;;;5095538;28;20445;-43
2024/02/13 06:06:42;;;;;;;7.53;3.60;;;4.10;1.00;;;;;;5112772;28;20179;-41
2024/02/13 06:09:09;;;;;;;7.20;4.80;;;4.10;1.00;;;;;;5113037;28;20464;-41
2024/02/13 06:11:36;;;;;;;6.80;5.33;;;4.10;1.00;;;;;;5111315;28;20651;-41
2024/02/13 06:14:02;;;;;;;9.30;5.03;;;4.10;1.00;;;;;;5109285;28;20505;-43
2024/02/13 06:16:27;;;;;;;6.30;4.07;;;4.20;1.00;;;;;;5110466;28;20830;-42
2024/02/13 06:18:53;;;;;;;4.60;2.73;;;4.20;1.00;;;;;;5093295;28;20437;-43
2024/02/13 06:21:19;;;;;;;4.10;3.73;;;4.30;1.00;;;;;;5111111;28;20172;-44
2024/02/13 06:23:46;;;;;;;4.03;2.97;;;4.30;1.00;;;;;;5110207;28;20609;-41
2024/02/13 06:26:12;;;;;;;6.70;3.60;;;4.30;1.00;;;;;;5108824;28;20516;-43
2024/02/13 06:28:38;;;;;;;7.87;3.50;;;4.40;1.00;;;;;;5113655;28;20413;-42
2024/02/13 06:31:04;;;;;;;9.13;3.47;;;4.40;1.00;;;;;;5098521;28;20203;-42
2024/02/13 06:33:30;;;;;;;5.60;3.50;;;4.40;1.00;;;;;;5117669;28;20280;-42
2024/02/13 06:35:56;;;;;;;5.30;3.17;;;4.40;1.00;;;;;;5117609;28;20804;-42
2024/02/13 06:38:24;;;;;;;5.23;3.17;;;4.50;1.00;;;;;;5116986;28;20429;-44
2024/02/13 06:40:50;;;;;;;3.77;2.90;;;4.50;1.00;;;;;;5115487;28;20417;-42
2024/02/13 06:43:17;;;;;;;8.40;3.33;;;4.50;1.00;;;;;;5098223;28;20512;-42
2024/02/13 06:45:42;;;;;;;4.77;3.00;;;4.50;1.00;;;;;;5117056;28;20486;-43
2024/02/13 06:48:08;;;;;;;6.30;3.60;;;4.50;1.00;;;;;;5118055;28;20425;-41
2024/02/13 06:50:34;;;;;;;5.23;3.60;;;4.60;1.00;;;;;;5118027;28;20212;-42
2024/02/13 06:52:59;;;;;;;4.63;3.40;;;4.60;1.00;;;;;;5082425;28;20183;-43
2024/02/13 06:55:26;;;;;;;6.23;3.43;;;4.60;1.00;;;;;;5099477;28;20241;-42
2024/02/13 06:57:52;;;;;;;8.13;4.70;;;4.70;1.00;;;;;;5099966;28;20274;-41
2024/02/13 07:00:19;;;;;;;7.83;2.77;;;4.70;1.00;;;;;;5117794;28;20453;-42
2024/02/13 07:02:45;;;;;;;4.57;3.17;;;4.80;1.00;;;;;;5100138;28;20236;-40
2024/02/13 07:05:11;;;;;;;5.30;2.87;;;4.80;1.00;;;;;;5116669;28;20490;-40
2024/02/13 07:07:37;;;;;;;9.03;3.40;;;4.90;1.00;;;;;;5116187;28;20739;-44
2024/02/13 07:10:04;;;;;;;5.13;3.80;;;5.00;1.00;;;;;;5117128;28;20437;-43
2024/02/13 07:12:30;;;;;;;6.73;3.67;;;5.20;1.00;;;;;;5116363;28;20179;-44
2024/02/13 07:14:56;;;;;;;3.63;3.07;;;5.30;1.00;;;;;;5116243;28;20421;-41
2024/02/13 07:17:22;;;;;;;5.73;3.57;;;5.40;1.00;;;;;;5113865;28;20267;-42
2024/02/13 07:19:48;;;;;;;9.63;3.90;;;5.50;1.00;;;;;;5115047;28;20195;-42
2024/02/13 07:22:14;;;;;;;5.97;3.27;;;5.60;1.00;;;;;;5116848;28;20422;-43
2024/02/13 07:24:40;;;;;;;4.93;3.40;;;5.70;1.00;;;;;;5116459;28;20582;-42
2024/02/13 07:27:05;;;;;;;9.63;3.33;;;6.00;1.00;;;;;;5117023;28;20473;-50
2024/02/13 07:29:31;;;;;;;5.03;3.03;;;6.20;1.00;;;;;;5116024;28;20195;-42
2024/02/13 07:32:00;;;;;;;4.10;2.80;;;6.50;99.90;;;;;;5112659;28;20465;-41
2024/02/13 07:34:27;;;;;;;4.10;2.80;;;6.90;99.90;;;;;;5113449;28;20410;-42
2024/02/13 07:36:53;;;;;;;6.57;2.70;;;7.20;99.90;;;;;;5114627;28;20422;-42
2024/02/13 07:39:18;;;;;;;4.20;2.67;;;7.60;99.90;;;;;;5115643;28;20425;-41
2024/02/13 07:41:44;;;;;;;3.80;2.00;;;7.70;1.00;;;;;;5115892;28;20434;-44
2024/02/13 07:44:11;;;;;;;6.50;2.43;;;7.80;1.00;;;;;;5113848;28;20299;-42
2024/02/13 07:46:38;;;;;;;2.83;2.07;;;7.70;1.00;;;;;;5115929;28;20800;-41
2024/02/13 07:49:04;;;;;;;5.70;2.27;;;7.80;1.00;;;;;;5116450;28;20243;-42
2024/02/13 07:51:30;;;;;;;4.53;2.33;;;7.60;99.90;;;;;;5114725;28;20473;-41
2024/02/13 07:53:57;;;;;;;3.97;2.43;;;7.80;1.00;;;;;;5116000;28;20436;-42
2024/02/13 07:56:28;;;;;;;3.60;1.87;;;8.10;44.20;;;;;;5114919;28;20521;-43
2024/02/13 07:58:54;;;;;;;5.83;2.47;;;8.50;31.50;;;;;;5114933;28;20424;-41
2024/02/13 08:01:21;;;;;;;7.20;2.80;;;9.10;1.00;;;;;;5114980;28;20543;-42
2024/02/13 08:03:46;;;;;;;3.03;1.97;;;9.60;99.90;;;;;;5114286;28;20773;-41
2024/02/13 08:06:12;;;;;;;4.60;2.37;;;9.80;1.00;;;;;;5097437;28;20441;-41
2024/02/13 08:08:38;;;;;;;4.20;2.67;;;10.10;1.00;;;;;;5115311;28;20199;-41
2024/02/13 08:11:04;;;;;;;9.63;2.93;;;10.30;99.90;;;;;;5097943;28;20489;-43
2024/02/13 08:13:30;;;;;;;5.33;2.53;;;10.50;99.90;;;;;;5097320;28;20208;-42
2024/02/13 08:15:56;;;;;;;3.77;2.30;;;10.70;99.90;;;;;;5081960;28;20974;-41
2024/02/13 08:18:21;;;;;;;3.50;2.17;;;10.60;69.70;;;;;;5116733;28;20224;-41
2024/02/13 08:20:47;;;;;;;4.10;2.27;;;11.00;99.90;;;;;;5117482;28;20294;-45
2024/02/13 08:23:12;;;;;;;6.30;2.43;;;11.20;1.00;;;;;;5115078;28;20252;-44
2024/02/13 08:25:38;;;;;;;4.83;2.30;;;11.80;99.90;;;;;;5115432;28;20179;-44
2024/02/13 08:28:04;;;;;;;4.87;2.40;;;11.90;99.90;;;;;;5115149;28;20187;-41
2024/02/13 08:30:30;;;;;;;6.20;2.13;;;12.40;99.90;;;;;;5096345;28;20479;-41
2024/02/13 08:32:56;;;;;;;3.07;1.73;;;12.90;28.40;;;;;;5097304;28;20437;-42
2024/02/13 08:35:22;;;;;;;3.20;2.07;;;13.60;1.00;;;;;;5115407;28;20321;-42
2024/02/13 08:37:50;;;;;;;3.73;2.53;;;14.10;1.00;;;;;;5113874;28;20405;-42
2024/02/13 08:40:19;;;;;;;4.13;2.13;;;14.50;1.00;;;;;;5113869;28;20637;-40
2024/02/13 08:42:45;;;;;;;4.07;2.23;;;14.90;1.00;;;;;;5098575;28;20428;-42
2024/02/13 08:45:11;;;;;;;6.10;2.70;;;15.10;1.00;;;;;;5114716;28;20681;-43
2024/02/13 08:47:37;;;;;;;3.37;1.93;;;15.60;1.00;;;;;;5114072;28;20262;-44
2024/02/13 08:50:03;;;;;;;5.33;2.20;;;15.50;1.00;;;;;;5095845;28;20578;-41
2024/02/13 08:52:29;;;;;;;3.10;1.67;;;15.80;1.00;;;;;;5097378;28;20425;-40
2024/02/13 08:54:54;;;;;;;2.77;1.93;;;15.20;1.00;;;;;;5115172;28;20430;-40
2024/02/13 08:57:20;;;;;;;3.50;2.07;;;15.20;1.00;;;;;;5079366;28;20187;-41
2024/02/13 08:59:46;;;;;;;4.50;1.83;;;14.90;1.00;;;;;;5114751;28;20417;-42
2024/02/13 09:02:12;;;;;;;3.93;2.00;;;13.90;1.00;;;;;;5113377;28;20524;-42
2024/02/13 09:04:38;;;;;;;8.37;2.40;;;12.80;1.00;;;;;;5114105;28;20831;-41
2024/02/13 09:07:04;;;;;;;6.13;2.40;;;12.10;1.00;;;;;;5115680;28;20711;-41
2024/02/13 09:09:32;;;;;;;3.93;1.17;;;11.90;1.00;;;;;;5116258;28;20290;-36
2024/02/13 09:12:02;;;;;;;2.53;1.70;;;12.40;1.00;;;;;;5116053;28;20223;-38
2024/02/13 09:14:31;;;;;;;6.03;1.87;;;13.70;99.90;;;;;;5116329;28;20829;-37
2024/02/13 09:16:59;;;;;;;3.00;1.73;;;15.10;99.90;;;;;;5116396;28;20436;-38
2024/02/13 09:19:25;;;;;;;3.30;1.50;;;16.10;1.00;;;;;;5115351;28;20402;-41
2024/02/13 09:21:51;;;;;;;6.00;2.03;;;16.90;1.00;;;;;;5114905;28;20699;-39
2024/02/13 09:24:17;;;;;;;4.77;1.70;;;17.60;1.00;;;;;;5112721;28;20434;-39
2024/02/13 09:26:42;;;;;;;5.30;2.13;;;18.90;1.00;;;;;;5111530;28;20531;-39
2024/02/13 09:29:08;;;;;;;7.87;2.40;;;19.50;1.00;;;;;;5095047;28;20180;-40
2024/02/13 09:31:34;;;;;;;1.80;1.20;;;20.20;1.00;;;;;;5111795;28;20431;-39
2024/02/13 09:34:00;;;;;;;4.80;1.67;;;20.60;1.00;;;;;;5112443;28;20253;-41
2024/02/13 09:36:27;;;;;;;4.03;1.60;;;20.50;1.00;;;;;;5114004;28;20763;-38
2024/02/13 09:38:52;;;;;;;2.47;1.60;;;20.60;1.00;;;;;;5116930;28;20552;-39
2024/02/13 09:41:21;;;;;;;2.80;1.70;;;21.10;1.00;;;;;;5098160;28;20910;-40
2024/02/13 09:43:47;;;;;;;3.63;2.07;;;21.60;1.00;;;;;;5117696;28;20425;-46
2024/02/13 09:46:16;;;;;;;4.47;1.80;;;22.30;1.00;;;;;;5081352;28;20418;-41
2024/02/13 09:48:46;;;;;;;3.73;1.57;;;22.10;99.90;;;;;;5097862;28;20225;-39
2024/02/13 09:51:18;;;;;;;3.27;1.97;;;22.50;99.90;;;;;;5114302;28;20469;-40
2024/02/13 09:53:46;;;;;;;6.20;1.80;;;22.50;99.90;;;;;;5112595;28;20479;-38
2024/02/13 09:56:14;;;;;;;3.80;1.90;;;22.50;99.90;;;;;;5093427;28;20418;-38
2024/02/13 09:58:44;;;;;;;3.77;1.77;;;22.50;99.90;;;;;;5092445;28;20433;-40
2024/02/13 10:01:09;;;;;;;3.53;2.07;;;21.90;99.90;;;;;;5110930;28;20683;-38
2024/02/13 10:03:36;;;;;;;3.70;1.87;;;21.90;99.90;;;;;;5113869;28;20437;-41
2024/02/13 10:06:03;;;;;;;4.27;2.60;;;21.00;99.90;;;;;;5110642;28;20175;-38
2024/02/13 10:08:30;;;;;;;3.70;2.00;;;20.80;99.90;;;;;;5094293;28;20417;-38
2024/02/13 10:11:12;;;;;;;2.70;2.10;;;19.80;99.90;;;;;;5093941;28;20527;-38
2024/02/13 10:13:39;;;;;;;3.87;1.87;;;19.20;99.90;;;;;;5114588;28;20397;-39
2024/02/13 10:16:05;;;;;;;4.43;1.60;;;20.30;99.90;;;;;;5115670;28;20440;-39
2024/02/13 10:18:33;;;;;;;4.30;1.70;;;21.60;99.90;;;;;;5114986;28;20417;-40
2024/02/13 10:21:00;;;;;;;4.67;1.77;;;22.40;99.90;;;;;;5115231;28;20448;-40
2024/02/13 10:23:29;;;;;;;5.73;2.17;;;22.10;99.90;;;;;;5100922;28;20518;-39
2024/02/13 10:25:55;;;;;;;3.47;1.70;;;20.40;99.90;;;;;;5117503;28;20421;-40
2024/02/13 10:28:22;;;;;;;5.57;2.17;;;19.40;99.90;;;;;;5117107;28;20700;-39
2024/02/13 10:30:52;;;;;;;4.07;2.20;;;18.90;99.90;;;;;;5115941;28;20208;-39
2024/02/13 10:33:19;;;;;;;4.53;2.10;;;17.80;99.90;;;;;;5117567;28;20847;-41
2024/02/13 10:35:52;;;;;;;4.03;2.50;;;17.50;99.90;;;;;;5116781;28;20633;-38
2024/02/13 10:38:23;;;;;;;3.23;1.47;;;17.30;99.90;;;;;;5115776;28;20449;-39
2024/02/13 10:40:51;;;;;;;4.80;1.93;;;17.60;99.90;;;;;;5100841;28;20413;-38
2024/02/13 10:43:17;;;;;;;2.20;1.50;;;17.00;99.90;;;;;;5116464;28;20424;-37
2024/02/13 10:45:46;;;;;;;3.10;1.80;;;16.90;99.90;;;;;;5100491;28;20812;-40
2024/02/13 10:48:40;;;;;;;4.90;1.87;;;17.00;99.90;;;;;;5116093;28;20187;-38
2024/02/13 10:51:08;;;;;;;3.50;2.10;;;17.70;99.90;;;;;;5118661;28;20501;-38
2024/02/13 10:53:35;;;;;;;5.63;2.57;;;18.10;99.90;;;;;;5118613;28;20529;-38
2024/02/13 10:56:04;;;;;;;4.27;2.20;;;18.60;99.90;;;;;;5117138;28;20451;-37
2024/02/13 10:58:30;;;;;;;2.67;1.50;;;18.90;99.90;;;;;;5099157;28;20664;-37
2024/02/13 11:00:56;;;;;;;3.67;1.30;;;18.40;99.90;;;;;;5099178;28;20465;-38
2024/02/13 11:03:27;;;;;;;2.93;1.50;;;18.10;99.90;;;;;;5095504;28;20478;-40
2024/02/13 11:05:52;;;;;;;3.90;1.57;;;18.30;99.90;;;;;;5093163;28;20429;-38
2024/02/13 11:08:18;;;;;;;2.30;2.00;;;18.70;99.90;;;;;;5112475;28;20433;-39
2024/02/13 11:10:44;;;;;;;4.83;3.40;;;18.20;99.90;;;;;;5094493;28;20508;-39
2024/02/13 11:13:10;;;;;;;3.90;2.70;;;18.00;99.90;;;;;;5114106;28;20414;-40
2024/02/13 11:15:40;;;;;;;3.50;2.20;;;18.10;99.90;;;;;;5115605;28;20465;-39
2024/02/13 11:18:12;;;;;;;2.67;1.70;;;18.50;99.90;;;;;;5116009;28;20168;-40
2024/02/13 11:20:42;;;;;;;5.33;2.20;;;17.80;99.90;;;;;;5117952;28;20429;-39
2024/02/13 11:23:17;;;;;;;5.17;2.37;;;16.70;99.90;;;;;;5117164;28;20883;-39
2024/02/13 11:25:57;;;;;;;3.77;2.27;;;15.70;99.90;;;;;;5116397;28;20512;-39
2024/02/13 11:28:22;;;;;;;4.30;2.50;;;14.80;99.90;;;;;;5116526;28;20428;-39
2024/02/13 11:30:48;;;;;;;4.17;1.87;;;14.30;99.90;;;;;;5116414;28;20477;-39
2024/02/13 11:33:16;;;;;;;3.67;1.50;;;15.40;99.90;;;;;;5115467;28;20577;-38
2024/02/13 11:35:58;;;;;;;1.97;1.30;;;17.00;99.90;;;;;;5113209;28;20277;-38
2024/02/13 11:38:27;;;;;;;1.90;0.93;;;18.60;99.90;;;;;;5109599;28;20481;-42
2024/02/13 11:40:55;;;;;;;2.70;1.40;;;20.70;99.90;;;;;;5095278;28;20452;-42
2024/02/13 11:43:30;;;;;;;2.13;1.30;;;21.90;99.90;;;;;;5094779;28;20709;-40
2024/02/13 11:45:57;;;;;;;3.40;1.47;;;22.70;99.90;;;;;;5094533;28;20448;-39
2024/02/13 11:48:26;;;;;;;1.60;0.90;;;23.90;1.00;;;;;;5095818;28;20430;-39
2024/02/13 11:50:57;;;;;;;1.93;0.90;;;24.00;1.00;;;;;;5096221;28;20732;-40
2024/02/13 11:53:23;;;;;;;2.97;1.00;;;23.40;1.00;;;;;;5077982;28;20913;-39
2024/02/13 11:55:49;;;;;;;4.50;1.27;;;22.70;1.00;;;;;;5094861;28;20429;-38
2024/02/13 11:58:20;;;;;;;2.67;1.20;;;22.30;1.00;;;;;;5094584;28;20971;-41
2024/02/13 12:01:08;;;;;;;2.30;0.90;;;21.30;1.00;;;;;;5094335;28;20439;-39
2024/02/13 12:03:38;;;;;;;1.90;1.13;;;21.60;1.00;;;;;;5093956;28;20458;-40
2024/02/13 12:06:05;;;;;;;3.17;1.33;;;21.20;1.00;;;;;;5076197;28;20434;-38
2024/02/13 12:08:35;;;;;;;4.53;1.10;;;20.40;1.00;;;;;;5095216;28;20525;-39
2024/02/13 12:11:01;;;;;;;1.43;0.90;;;20.60;1.00;;;;;;5095438;28;20469;-41
2024/02/13 12:13:30;;;;;;;1.90;1.10;;;21.30;1.00;;;;;;5092691;28;20403;-39
2024/02/13 12:15:58;;;;;;;3.10;1.20;;;20.40;1.00;;;;;;5090747;28;20533;-40
2024/02/13 12:18:29;;;;;;;1.60;1.10;;;20.80;1.00;;;;;;5073300;28;20729;-38
2024/02/13 12:20:55;;;;;;;2.93;1.47;;;21.30;1.00;;;;;;5092110;28;20697;-39
2024/02/13 12:23:20;;;;;;;2.90;1.17;;;22.10;1.00;;;;;;5091450;28;20476;-41
2024/02/13 12:25:46;;;;;;;2.93;1.30;;;23.00;1.00;;;;;;5074923;28;20639;-39
2024/02/13 12:28:13;;;;;;;2.23;1.30;;;23.20;1.00;;;;;;5092738;28;20569;-40
2024/02/13 12:30:44;;;;;;;2.43;1.10;;;22.90;1.00;;;;;;5095984;28;20485;-38
2024/02/13 12:33:19;;;;;;;1.27;0.87;;;22.50;1.00;;;;;;5094448;28;20450;-41
2024/02/13 12:35:46;;;;;;;2.37;0.90;;;23.00;1.00;;;;;;5093292;28;20422;-38
2024/02/13 12:38:19;;;;;;;2.10;0.90;;;23.10;1.00;;;;;;5094375;28;20429;-39
2024/02/13 12:40:45;;;;;;;1.67;1.00;;;22.40;1.00;;;;;;5090664;28;20759;-38
2024/02/13 12:43:15;;;;;;;1.20;0.77;;;23.10;1.00;;;;;;5090390;28;20470;-39
2024/02/13 12:45:41;;;;;;;2.23;0.90;;;23.80;1.00;;;;;;5091765;28;20434;-39
2024/02/13 12:48:10;;;;;;;1.93;0.90;;;25.20;1.00;;;;;;5092767;28;20482;-40
2024/02/13 12:50:37;;;;;;;3.20;1.00;;;26.70;1.00;;;;;;5091018;28;20769;-41
2024/02/13 12:53:09;;;;;;;4.20;0.97;;;27.00;1.00;;;;;;5091803;28;20434;-41
2024/02/13 12:55:38;;;;;;;1.83;1.20;;;27.20;1.00;;;;;;5073677;28;20796;-42
2024/02/13 12:58:07;;;;;;;3.10;1.03;;;27.60;1.00;;;;;;5085803;28;20407;-40
2024/02/13 13:00:38;;;;;;;2.37;0.93;;;27.90;1.00;;;;;;5095282;28;20808;-40
2024/02/13 13:03:06;;;;;;;2.17;1.10;;;27.90;1.00;;;;;;5095036;28;20683;-39
2024/02/13 13:05:33;;;;;;;1.50;0.90;;;28.70;1.00;;;;;;5094493;28;20408;-41